sensor_id;sensor_type;location;lat;lon;timestamp;P1;durP1;ratioP1;P2;durP2;ratioP2
13855;SDS011;6998;53.608;9.958;2023-02-15T04:36:15;47.57;;;30.30;;
13855;SDS011;6998;53.608;9.958;2023-02-15T04:42:00;53.10;;;30.83;;
13855;SDS011;6998;53.608;9.958;2023-02-15T07:13:38;53.80;;;32.47;;
13855;SDS011;6998;53.608;9.958;2023-02-15T07:16:33;48.63;;;31.27;;
13855;SDS011;6998;53.608;9.958;2023-02-15T12:45:31;47.37;;;35.80;;
13855;SDS011;6998;53.608;9.958;2023-02-15T12:48:15;45.20;;;36.80;;
13855;SDS011;6998;53.608;9.958;2023-02-15T12:50:51;50.55;;;37.50;;
13855;SDS011;6998;53.608;9.958;2023-02-15T12:53:57;45.88;;;36.05;;
13855;SDS011;6998;53.608;9.958;2023-02-15T12:56:26;43.85;;;35.40;;
13855;SDS011;6998;53.608;9.958;2023-02-15T12:59:03;47.33;;;36.80;;
13855;SDS011;6998;53.608;9.958;2023-02-15T13:01:35;46.38;;;36.85;;
13855;SDS011;6998;53.608;9.958;2023-02-15T13:04:04;45.25;;;34.70;;
13855;SDS011;6998;53.608;9.958;2023-02-15T13:06:46;43.95;;;35.63;;
13855;SDS011;6998;53.608;9.958;2023-02-15T13:09:17;44.63;;;35.35;;
13855;SDS011;6998;53.608;9.958;2023-02-15T13:11:55;41.95;;;34.67;;
13855;SDS011;6998;53.608;9.958;2023-02-15T13:14:25;43.97;;;34.97;;
13855;SDS011;6998;53.608;9.958;2023-02-15T13:17:00;39.75;;;32.35;;
13855;SDS011;6998;53.608;9.958;2023-02-15T13:19:31;40.72;;;33.38;;
13855;SDS011;6998;53.608;9.958;2023-02-15T13:22:02;42.65;;;34.03;;
13855;SDS011;6998;53.608;9.958;2023-02-15T13:24:32;42.08;;;34.53;;
13855;SDS011;6998;53.608;9.958;2023-02-15T13:27:04;42.55;;;34.35;;
13855;SDS011;6998;53.608;9.958;2023-02-15T13:29:33;39.55;;;33.17;;
13855;SDS011;6998;53.608;9.958;2023-02-15T13:32:06;45.55;;;33.92;;
13855;SDS011;6998;53.608;9.958;2023-02-15T13:34:42;39.00;;;34.08;;
13855;SDS011;6998;53.608;9.958;2023-02-15T13:37:11;40.90;;;34.13;;
13855;SDS011;6998;53.608;9.958;2023-02-15T13:39:46;38.83;;;33.40;;
13855;SDS011;6998;53.608;9.958;2023-02-15T13:42:18;42.15;;;32.83;;
13855;SDS011;6998;53.608;9.958;2023-02-15T13:44:53;37.65;;;31.98;;
13855;SDS011;6998;53.608;9.958;2023-02-15T13:47:40;39.70;;;32.83;;
13855;SDS011;6998;53.608;9.958;2023-02-15T13:53:42;38.80;;;33.10;;
13855;SDS011;6998;53.608;9.958;2023-02-15T13:56:22;37.50;;;30.23;;
13855;SDS011;6998;53.608;9.958;2023-02-15T14:01:54;38.10;;;33.03;;
13855;SDS011;6998;53.608;9.958;2023-02-15T14:04:32;39.35;;;31.92;;
13855;SDS011;6998;53.608;9.958;2023-02-15T14:07:33;38.55;;;32.60;;
13855;SDS011;6998;53.608;9.958;2023-02-15T14:10:18;38.15;;;31.35;;
13855;SDS011;6998;53.608;9.958;2023-02-15T14:13:03;35.90;;;31.27;;
13855;SDS011;6998;53.608;9.958;2023-02-15T14:15:48;38.83;;;31.73;;
13855;SDS011;6998;53.608;9.958;2023-02-15T14:18:22;35.05;;;31.08;;
13855;SDS011;6998;53.608;9.958;2023-02-15T14:20:59;35.67;;;31.55;;
13855;SDS011;6998;53.608;9.958;2023-02-15T14:23:38;35.20;;;31.20;;
13855;SDS011;6998;53.608;9.958;2023-02-15T14:26:15;39.45;;;31.83;;
13855;SDS011;6998;53.608;9.958;2023-02-15T14:28:49;34.63;;;29.70;;
13855;SDS011;6998;53.608;9.958;2023-02-15T14:31:24;38.55;;;31.80;;
13855;SDS011;6998;53.608;9.958;2023-02-15T14:33:56;35.47;;;31.50;;
13855;SDS011;6998;53.608;9.958;2023-02-15T14:36:28;35.80;;;31.90;;
13855;SDS011;6998;53.608;9.958;2023-02-15T14:38:59;34.72;;;30.88;;
13855;SDS011;6998;53.608;9.958;2023-02-15T14:41:53;37.13;;;31.48;;
13855;SDS011;6998;53.608;9.958;2023-02-15T14:44:27;37.03;;;31.67;;
13855;SDS011;6998;53.608;9.958;2023-02-15T14:47:01;35.50;;;29.92;;
13855;SDS011;6998;53.608;9.958;2023-02-15T14:49:35;34.20;;;30.42;;
13855;SDS011;6998;53.608;9.958;2023-02-15T14:52:07;32.85;;;29.30;;
13855;SDS011;6998;53.608;9.958;2023-02-15T14:57:26;33.90;;;29.70;;
13855;SDS011;6998;53.608;9.958;2023-02-15T14:59:56;33.53;;;28.38;;
13855;SDS011;6998;53.608;9.958;2023-02-15T15:02:26;30.48;;;27.13;;
13855;SDS011;6998;53.608;9.958;2023-02-15T15:05:07;31.55;;;28.08;;
13855;SDS011;6998;53.608;9.958;2023-02-15T15:07:41;33.42;;;29.30;;
13855;SDS011;6998;53.608;9.958;2023-02-15T15:22:51;33.03;;;27.75;;
13855;SDS011;6998;53.608;9.958;2023-02-15T15:26:22;30.55;;;26.58;;
13855;SDS011;6998;53.608;9.958;2023-02-15T15:29:11;32.83;;;26.52;;
13855;SDS011;6998;53.608;9.958;2023-02-15T15:31:42;28.83;;;25.80;;
13855;SDS011;6998;53.608;9.958;2023-02-15T15:34:21;30.40;;;26.45;;
13855;SDS011;6998;53.608;9.958;2023-02-15T15:40:21;30.13;;;25.98;;
13855;SDS011;6998;53.608;9.958;2023-02-15T15:46:27;34.25;;;26.20;;
13855;SDS011;6998;53.608;9.958;2023-02-15T15:49:17;34.95;;;28.80;;
13855;SDS011;6998;53.608;9.958;2023-02-15T15:52:00;34.53;;;28.35;;
13855;SDS011;6998;53.608;9.958;2023-02-15T15:54:28;32.63;;;26.77;;
13855;SDS011;6998;53.608;9.958;2023-02-15T15:57:02;32.42;;;24.85;;
13855;SDS011;6998;53.608;9.958;2023-02-15T15:59:34;31.67;;;25.75;;
13855;SDS011;6998;53.608;9.958;2023-02-15T16:02:11;31.08;;;25.45;;
13855;SDS011;6998;53.608;9.958;2023-02-15T16:04:44;29.25;;;25.08;;
13855;SDS011;6998;53.608;9.958;2023-02-15T16:07:49;33.42;;;26.23;;
13855;SDS011;6998;53.608;9.958;2023-02-15T16:10:21;35.53;;;27.08;;
13855;SDS011;6998;53.608;9.958;2023-02-15T16:12:55;32.03;;;26.77;;
13855;SDS011;6998;53.608;9.958;2023-02-15T16:15:34;30.75;;;25.90;;
13855;SDS011;6998;53.608;9.958;2023-02-15T16:18:13;32.30;;;26.58;;
13855;SDS011;6998;53.608;9.958;2023-02-15T16:20:54;31.73;;;26.53;;
13855;SDS011;6998;53.608;9.958;2023-02-15T16:23:50;32.60;;;26.10;;
13855;SDS011;6998;53.608;9.958;2023-02-15T16:30:33;31.30;;;25.57;;
13855;SDS011;6998;53.608;9.958;2023-02-15T16:33:47;30.17;;;25.60;;
13855;SDS011;6998;53.608;9.958;2023-02-15T16:36:28;32.30;;;25.93;;
13855;SDS011;6998;53.608;9.958;2023-02-15T16:42:07;33.27;;;26.03;;
13855;SDS011;6998;53.608;9.958;2023-02-15T16:48:16;29.50;;;25.63;;
13855;SDS011;6998;53.608;9.958;2023-02-15T16:50:48;27.10;;;24.03;;
13855;SDS011;6998;53.608;9.958;2023-02-15T16:53:26;29.13;;;24.90;;
13855;SDS011;6998;53.608;9.958;2023-02-15T16:56:29;27.83;;;24.63;;
13855;SDS011;6998;53.608;9.958;2023-02-15T16:59:33;27.10;;;23.07;;
13855;SDS011;6998;53.608;9.958;2023-02-15T18:12:35;32.03;;;25.10;;
13855;SDS011;6998;53.608;9.958;2023-02-15T18:15:39;36.47;;;28.30;;
13855;SDS011;6998;53.608;9.958;2023-02-15T18:18:52;34.80;;;26.77;;
13855;SDS011;6998;53.608;9.958;2023-02-15T19:14:02;38.93;;;30.03;;
